Time;durP1;ratioP1;P1;durP2;ratioP2;P2;SDS_P1;SDS_P2;PMS_P1;PMS_P2;Temp;Humidity;BMP_temperature;BMP_pressure;BME280_temperature;BME280_humidity;BME280_pressure;Samples;Min_cycle;Max_cycle;Signal;HPM_P1;HPM_P2
2023/08/15 00:08:03;;;;;;;6.80;3.90;;;20.90;99.90;;;;;;5075395;28;20442;-73
2023/08/15 00:10:28;;;;;;;5.83;5.27;;;20.80;99.90;;;;;;5079917;28;20441;-73
2023/08/15 00:12:54;;;;;;;5.37;4.53;;;20.90;99.90;;;;;;5082592;28;20872;-72
2023/08/15 00:15:19;;;;;;;6.33;4.27;;;20.90;99.90;;;;;;5055774;28;20184;-72
2023/08/15 00:17:45;;;;;;;4.80;4.27;;;20.90;99.90;;;;;;5079083;28;20182;-68
2023/08/15 00:20:11;;;;;;;3.93;3.60;;;20.90;99.90;;;;;;5076811;28;20205;-71
2023/08/15 00:22:36;;;;;;;6.33;5.23;;;20.90;99.90;;;;;;5079032;28;20214;-72
2023/08/15 00:25:02;;;;;;;4.20;3.80;;;20.90;99.90;;;;;;5077077;28;20169;-72
2023/08/15 00:27:28;;;;;;;3.73;3.43;;;20.80;99.90;;;;;;5080061;28;20196;-72
2023/08/15 00:29:53;;;;;;;4.80;4.30;;;20.80;99.90;;;;;;5060373;28;20462;-71
2023/08/15 00:32:19;;;;;;;5.40;4.03;;;20.80;99.90;;;;;;5079154;28;20204;-70
2023/08/15 00:34:45;;;;;;;4.50;4.10;;;20.80;99.90;;;;;;5076100;28;20185;-72
2023/08/15 00:37:10;;;;;;;6.90;4.83;;;20.70;99.90;;;;;;5080174;28;20187;-70
2023/08/15 00:39:36;;;;;;;4.97;4.40;;;20.70;99.90;;;;;;5078091;28;20678;-70
2023/08/15 00:42:01;;;;;;;8.33;4.80;;;20.80;99.90;;;;;;5080934;28;20183;-70
2023/08/15 00:44:27;;;;;;;5.03;4.53;;;20.80;99.90;;;;;;5079448;28;20172;-71
2023/08/15 00:46:53;;;;;;;5.00;4.00;;;20.80;99.90;;;;;;5079520;28;20226;-72
2023/08/15 00:49:19;;;;;;;4.03;3.70;;;20.70;99.90;;;;;;5080855;28;20218;-71
2023/08/15 00:51:46;;;;;;;2.80;2.53;;;20.60;99.90;;;;;;5079529;28;20196;-69
2023/08/15 00:54:12;;;;;;;5.10;2.63;;;20.50;99.90;;;;;;5077305;28;21000;-70
2023/08/15 00:56:38;;;;;;;3.37;3.00;;;20.50;99.90;;;;;;5079255;28;20793;-71
2023/08/15 00:59:04;;;;;;;3.10;2.80;;;20.50;99.90;;;;;;5064058;28;20463;-70
2023/08/15 01:01:31;;;;;;;3.37;3.00;;;20.50;99.90;;;;;;5061589;28;20189;-70
2023/08/15 01:03:56;;;;;;;4.60;3.40;;;20.40;99.90;;;;;;5079714;28;20550;-71
2023/08/15 01:06:22;;;;;;;6.50;2.30;;;20.40;99.90;;;;;;5077364;28;23837;-71
2023/08/15 01:08:48;;;;;;;4.53;3.17;;;20.40;99.90;;;;;;5077291;28;20202;-67
2023/08/15 01:11:14;;;;;;;2.70;2.50;;;20.40;99.90;;;;;;5079968;28;20239;-69
2023/08/15 01:13:45;;;;;;;3.33;3.03;;;20.40;99.90;;;;;;5082528;28;20183;-69
2023/08/15 01:16:14;;;;;;;3.43;2.30;;;20.40;99.90;;;;;;5084012;28;20168;-70
2023/08/15 01:18:55;;;;;;;3.97;3.37;;;20.40;99.90;;;;;;5081147;28;20464;-71
2023/08/15 01:21:25;;;;;;;3.27;2.60;;;20.40;99.90;;;;;;5083547;28;20425;-70
2023/08/15 01:23:52;;;;;;;3.40;2.60;;;20.30;99.90;;;;;;5084740;28;20425;-71
2023/08/15 01:26:17;;;;;;;3.20;2.90;;;20.30;99.90;;;;;;5082481;28;20427;-70
2023/08/15 01:28:43;;;;;;;3.63;2.60;;;20.30;99.90;;;;;;5087528;28;20469;-67
2023/08/15 01:31:25;;;;;;;2.53;2.17;;;20.20;99.90;;;;;;5087474;28;20180;-69
2023/08/15 01:34:00;;;;;;;2.93;2.63;;;20.20;99.90;;;;;;5085062;28;20176;-70
2023/08/15 01:36:33;;;;;;;2.47;2.17;;;20.20;99.90;;;;;;5081730;28;20420;-68
2023/08/15 01:39:05;;;;;;;5.00;3.03;;;20.20;99.90;;;;;;5083259;28;20465;-70
2023/08/15 01:41:37;;;;;;;3.20;2.87;;;20.10;99.90;;;;;;5079741;28;20429;-70
2023/08/15 01:44:06;;;;;;;2.90;2.53;;;20.10;99.90;;;;;;5081028;28;20992;-70
2023/08/15 01:46:32;;;;;;;2.93;2.60;;;20.10;99.90;;;;;;5081638;28;20950;-70
2023/08/15 01:48:59;;;;;;;2.63;2.43;;;20.10;99.90;;;;;;5079672;28;20807;-70
2023/08/15 01:51:25;;;;;;;2.50;2.30;;;20.10;99.90;;;;;;5078995;28;20476;-69
2023/08/15 01:53:51;;;;;;;3.67;2.67;;;20.00;99.90;;;;;;5077947;28;20832;-69
2023/08/15 01:56:16;;;;;;;3.87;3.23;;;20.00;99.90;;;;;;5079668;28;20436;-70
2023/08/15 01:58:42;;;;;;;3.20;2.90;;;20.00;99.90;;;;;;5082765;28;20199;-68
2023/08/15 02:01:07;;;;;;;3.00;2.63;;;20.00;99.90;;;;;;5081571;28;20259;-70
2023/08/15 02:03:33;;;;;;;2.80;2.60;;;20.00;99.90;;;;;;5079368;28;20174;-67
2023/08/15 02:05:59;;;;;;;2.33;2.13;;;20.00;99.90;;;;;;5083281;28;20175;-70
2023/08/15 02:08:24;;;;;;;2.53;2.33;;;19.90;99.90;;;;;;5080754;28;20737;-70
2023/08/15 02:10:53;;;;;;;2.53;2.33;;;20.00;99.90;;;;;;5079877;28;20181;-70
2023/08/15 02:13:18;;;;;;;2.70;2.50;;;20.00;99.90;;;;;;5080741;28;20170;-70
2023/08/15 02:15:44;;;;;;;2.70;2.43;;;20.00;99.90;;;;;;5079038;28;20425;-71
2023/08/15 02:18:10;;;;;;;2.80;2.40;;;20.00;99.90;;;;;;5079936;28;20724;-69
2023/08/15 02:20:37;;;;;;;2.70;2.43;;;19.90;99.90;;;;;;5082302;28;20231;-70
2023/08/15 02:23:03;;;;;;;2.90;2.70;;;19.90;99.90;;;;;;5077638;28;20423;-70
2023/08/15 02:25:28;;;;;;;2.83;2.63;;;19.90;99.90;;;;;;5081803;28;20961;-70
2023/08/15 02:27:54;;;;;;;2.20;2.10;;;19.90;99.90;;;;;;5084255;28;20213;-70
2023/08/15 02:30:19;;;;;;;4.20;2.90;;;19.80;99.90;;;;;;5087045;28;20649;-70
2023/08/15 02:32:45;;;;;;;2.50;2.30;;;19.80;99.90;;;;;;5088568;28;20179;-70
2023/08/15 02:35:13;;;;;;;3.53;3.23;;;19.80;99.90;;;;;;5089192;28;20170;-71
2023/08/15 02:37:40;;;;;;;2.60;2.40;;;19.80;99.90;;;;;;5089478;28;20200;-71
2023/08/15 02:40:08;;;;;;;3.53;3.17;;;19.80;99.90;;;;;;5088278;28;20449;-70
2023/08/15 02:42:33;;;;;;;3.43;3.00;;;19.80;99.90;;;;;;5086425;28;20429;-70
2023/08/15 02:44:59;;;;;;;2.93;2.73;;;19.80;99.90;;;;;;5086088;28;20426;-70
2023/08/15 02:47:25;;;;;;;3.50;3.20;;;19.80;99.90;;;;;;5090210;28;20175;-71
2023/08/15 02:49:51;;;;;;;3.20;2.83;;;19.70;99.90;;;;;;5088881;28;20447;-69
2023/08/15 02:52:16;;;;;;;5.63;3.50;;;19.70;99.90;;;;;;5085423;28;20210;-69
2023/08/15 02:54:42;;;;;;;2.80;2.60;;;19.70;99.90;;;;;;5071819;28;20249;-70
2023/08/15 02:57:08;;;;;;;3.87;3.57;;;19.70;99.90;;;;;;5087493;28;20598;-68
2023/08/15 02:59:33;;;;;;;3.80;3.50;;;19.70;99.90;;;;;;5088554;28;20251;-69
2023/08/15 03:01:59;;;;;;;3.93;3.63;;;19.70;99.90;;;;;;5086253;28;20238;-69
2023/08/15 03:04:24;;;;;;;3.90;3.50;;;19.60;99.90;;;;;;5086776;28;20543;-69
2023/08/15 03:06:50;;;;;;;3.57;3.27;;;19.60;99.90;;;;;;5088190;28;20186;-70
2023/08/15 03:09:16;;;;;;;3.90;3.13;;;19.60;99.90;;;;;;5087621;28;20190;-70
2023/08/15 03:11:42;;;;;;;5.30;4.40;;;19.60;99.90;;;;;;5089034;28;20253;-70
2023/08/15 03:14:08;;;;;;;3.70;3.40;;;19.60;99.90;;;;;;5092903;28;20463;-70
2023/08/15 03:16:34;;;;;;;5.00;4.60;;;19.60;99.90;;;;;;5082972;28;20920;-70
2023/08/15 03:18:59;;;;;;;4.03;3.73;;;19.60;99.90;;;;;;5089120;28;20234;-70
2023/08/15 03:21:25;;;;;;;4.87;4.33;;;19.60;99.90;;;;;;5092254;28;20182;-70
2023/08/15 03:23:51;;;;;;;6.47;4.23;;;19.60;99.90;;;;;;5091098;28;20175;-70
2023/08/15 03:26:16;;;;;;;5.10;4.60;;;19.60;99.90;;;;;;5093009;28;20176;-70
2023/08/15 03:28:42;;;;;;;6.00;5.40;;;19.60;99.90;;;;;;5093036;28;20190;-70
2023/08/15 03:31:11;;;;;;;5.50;5.00;;;19.60;99.90;;;;;;5090266;28;20238;-68
2023/08/15 03:33:36;;;;;;;5.43;4.93;;;19.60;99.90;;;;;;5088196;28;20526;-70
2023/08/15 03:36:02;;;;;;;6.77;5.13;;;19.60;99.90;;;;;;5087471;28;20472;-70
2023/08/15 03:38:28;;;;;;;6.93;5.00;;;19.50;99.90;;;;;;5087613;28;20561;-70
2023/08/15 03:41:02;;;;;;;5.73;5.23;;;19.50;99.90;;;;;;5089634;28;20504;-67
2023/08/15 03:43:28;;;;;;;6.73;5.70;;;19.50;99.90;;;;;;5090398;28;20682;-70
2023/08/15 03:45:54;;;;;;;6.57;5.90;;;19.50;99.90;;;;;;5087790;28;20421;-69
2023/08/15 03:48:20;;;;;;;5.60;5.10;;;19.50;99.90;;;;;;5081210;28;20807;-70
2023/08/15 03:50:45;;;;;;;7.27;5.50;;;19.50;99.90;;;;;;5087651;28;20546;-70
2023/08/15 03:53:11;;;;;;;6.90;5.40;;;19.50;99.90;;;;;;5086625;28;20202;-70
2023/08/15 03:55:36;;;;;;;6.97;6.37;;;19.50;99.90;;;;;;5085429;28;20166;-69
2023/08/15 03:58:02;;;;;;;7.17;6.27;;;19.50;99.90;;;;;;5089492;28;20210;-70
2023/08/15 04:00:28;;;;;;;8.43;6.53;;;19.50;99.90;;;;;;5085085;28;20199;-71
2023/08/15 04:02:53;;;;;;;7.83;7.03;;;19.40;99.90;;;;;;5083611;28;20241;-71
2023/08/15 04:05:19;;;;;;;8.90;7.13;;;19.50;99.90;;;;;;5082171;28;20174;-70
2023/08/15 04:07:45;;;;;;;6.90;6.20;;;19.50;99.90;;;;;;5084343;28;20170;-71
2023/08/15 04:10:14;;;;;;;7.57;6.77;;;19.50;99.90;;;;;;5082873;28;20183;-71
2023/08/15 04:12:40;;;;;;;7.20;6.50;;;19.50;99.90;;;;;;5086002;28;20193;-68
2023/08/15 04:15:06;;;;;;;7.00;6.23;;;19.50;99.90;;;;;;5085054;28;20437;-69
2023/08/15 04:17:32;;;;;;;10.73;7.03;;;19.50;99.90;;;;;;5082089;28;20438;-71
2023/08/15 04:19:57;;;;;;;7.77;7.03;;;19.50;99.90;;;;;;5085547;28;20459;-71
2023/08/15 04:22:23;;;;;;;7.67;6.83;;;19.60;99.90;;;;;;5083963;28;20682;-70
2023/08/15 04:24:48;;;;;;;8.07;6.90;;;19.60;99.90;;;;;;5080987;28;20172;-70
2023/08/15 04:27:14;;;;;;;8.60;7.10;;;19.60;99.90;;;;;;5081438;28;20261;-71
2023/08/15 04:29:40;;;;;;;7.77;7.10;;;19.60;99.90;;;;;;5082584;28;20202;-69
2023/08/15 04:32:06;;;;;;;9.07;8.20;;;19.70;99.90;;;;;;5082555;28;20514;-70
2023/08/15 04:34:31;;;;;;;7.90;7.20;;;19.70;99.90;;;;;;5082444;28;20433;-71
2023/08/15 04:36:57;;;;;;;9.00;8.10;;;19.70;99.90;;;;;;5078245;28;20170;-70
2023/08/15 04:39:24;;;;;;;8.03;7.33;;;19.70;99.90;;;;;;5083195;28;20693;-70
2023/08/15 04:41:50;;;;;;;7.30;6.60;;;19.70;99.90;;;;;;5085325;28;20215;-72
2023/08/15 04:44:16;;;;;;;8.10;7.40;;;19.70;99.90;;;;;;5082815;28;20457;-70
2023/08/15 04:46:42;;;;;;;7.87;7.10;;;19.70;99.90;;;;;;5083484;28;20820;-67
2023/08/15 04:49:07;;;;;;;7.80;6.70;;;19.70;99.90;;;;;;5085464;28;20448;-70
2023/08/15 04:51:33;;;;;;;7.93;6.50;;;19.80;99.90;;;;;;5080230;28;20179;-70
2023/08/15 04:53:59;;;;;;;6.77;6.17;;;19.80;99.90;;;;;;5084446;28;20237;-71
2023/08/15 04:56:24;;;;;;;7.60;6.90;;;19.90;99.90;;;;;;5084066;28;20188;-70
2023/08/15 04:58:50;;;;;;;7.93;7.17;;;19.80;99.90;;;;;;5080214;28;20216;-71
2023/08/15 05:01:16;;;;;;;7.50;6.70;;;19.90;99.90;;;;;;5085079;28;20259;-71
2023/08/15 05:03:41;;;;;;;7.27;6.53;;;19.90;99.90;;;;;;5081477;28;20202;-71
2023/08/15 05:06:07;;;;;;;6.50;5.90;;;19.90;99.90;;;;;;5082958;28;20182;-71
2023/08/15 05:08:33;;;;;;;6.90;6.20;;;20.00;99.90;;;;;;5083170;28;20198;-70
2023/08/15 05:11:00;;;;;;;7.30;6.50;;;20.00;99.90;;;;;;5082481;28;20198;-71
2023/08/15 05:13:26;;;;;;;7.33;5.73;;;20.10;99.90;;;;;;5082573;28;20208;-71
2023/08/15 05:15:51;;;;;;;6.77;6.20;;;20.10;99.90;;;;;;5078128;28;20845;-70
2023/08/15 05:18:17;;;;;;;7.60;5.70;;;20.10;99.90;;;;;;5081860;28;20999;-70
2023/08/15 05:20:46;;;;;;;6.40;5.80;;;20.10;99.90;;;;;;5085413;28;20205;-71
2023/08/15 05:23:11;;;;;;;7.57;6.80;;;20.20;99.90;;;;;;5086685;28;20515;-71
2023/08/15 05:25:37;;;;;;;6.20;5.70;;;20.20;99.90;;;;;;5083448;28;20427;-71
2023/08/15 05:28:06;;;;;;;7.00;6.30;;;20.40;99.90;;;;;;5084579;28;20194;-71
2023/08/15 05:30:34;;;;;;;6.53;5.83;;;20.40;99.90;;;;;;5086150;28;20192;-70
2023/08/15 05:33:00;;;;;;;5.40;4.90;;;20.60;99.90;;;;;;5067813;28;20433;-67
2023/08/15 05:35:26;;;;;;;5.77;5.17;;;20.80;99.90;;;;;;5111608;22;20435;-71
2023/08/15 05:37:53;;;;;;;4.93;4.47;;;21.10;99.90;;;;;;5053723;28;20460;-68
2023/08/15 05:40:18;;;;;;;10.57;4.37;;;21.40;99.90;;;;;;5055899;28;20464;-69
2023/08/15 05:42:44;;;;;;;6.20;4.63;;;21.60;99.90;;;;;;5058516;28;20436;-68
2023/08/15 05:45:10;;;;;;;3.57;3.27;;;22.00;99.90;;;;;;5056284;28;20165;-69
2023/08/15 05:47:35;;;;;;;4.13;3.83;;;22.40;99.90;;;;;;5059901;28;20209;-66
2023/08/15 05:50:02;;;;;;;4.20;3.63;;;22.30;99.90;;;;;;5055818;28;20192;-69
2023/08/15 05:52:28;;;;;;;4.53;3.70;;;22.70;99.90;;;;;;5056295;28;20194;-69
2023/08/15 05:54:55;;;;;;;4.40;3.70;;;23.00;99.90;;;;;;5057215;28;20429;-70
2023/08/15 05:57:20;;;;;;;8.30;3.20;;;23.10;99.90;;;;;;5051913;28;21086;-72
2023/08/15 05:59:46;;;;;;;6.43;3.80;;;23.30;99.90;;;;;;5050912;28;20466;-72
2023/08/15 06:02:13;;;;;;;4.03;3.63;;;23.50;99.90;;;;;;5048862;28;20178;-71
2023/08/15 06:04:39;;;;;;;5.10;4.07;;;23.70;99.90;;;;;;5051573;28;20220;-70
2023/08/15 06:07:04;;;;;;;4.13;3.80;;;23.70;99.90;;;;;;5048679;28;20449;-72
2023/08/15 06:09:31;;;;;;;4.10;3.67;;;24.50;99.90;;;;;;5047944;28;20205;-72
2023/08/15 06:11:56;;;;;;;3.90;3.60;;;24.60;99.90;;;;;;5050788;28;20526;-69
2023/08/15 06:14:22;;;;;;;4.17;3.77;;;24.40;99.90;;;;;;5033829;28;20429;-70
2023/08/15 06:16:48;;;;;;;4.20;3.50;;;24.50;99.90;;;;;;5054929;28;20194;-69
2023/08/15 06:19:14;;;;;;;4.07;3.77;;;25.30;99.90;;;;;;5049495;28;20206;-70
2023/08/15 06:21:43;;;;;;;3.67;3.10;;;25.40;99.90;;;;;;5049793;28;20512;-70
2023/08/15 06:24:12;;;;;;;3.60;3.27;;;25.40;99.90;;;;;;5054321;28;20425;-67
2023/08/15 06:26:38;;;;;;;3.57;2.90;;;25.80;99.90;;;;;;5050676;28;20489;-71
2023/08/15 06:29:07;;;;;;;4.87;3.60;;;25.80;99.90;;;;;;5051422;28;20428;-70
2023/08/15 06:31:34;;;;;;;3.43;3.13;;;25.50;99.90;;;;;;5053197;28;20425;-70
2023/08/15 06:34:02;;;;;;;3.60;3.00;;;25.90;99.90;;;;;;5051719;28;20429;-70
2023/08/15 06:36:27;;;;;;;3.10;2.83;;;27.10;99.90;;;;;;5048423;28;20464;-71
2023/08/15 06:38:53;;;;;;;5.40;3.23;;;27.00;99.90;;;;;;5052239;28;20456;-71
2023/08/15 06:41:19;;;;;;;4.20;3.80;;;27.70;99.90;;;;;;5054410;28;20181;-71
2023/08/15 06:43:44;;;;;;;3.67;3.37;;;27.80;99.90;;;;;;5052168;28;20617;-70
2023/08/15 06:46:14;;;;;;;3.70;3.40;;;27.90;99.90;;;;;;5054995;28;20276;-70
2023/08/15 06:48:40;;;;;;;3.67;3.37;;;27.70;99.90;;;;;;5050170;28;20182;-70
2023/08/15 06:51:05;;;;;;;3.70;3.40;;;28.20;99.90;;;;;;5049981;28;20436;-71
2023/08/15 06:53:31;;;;;;;3.40;3.00;;;27.90;99.90;;;;;;5049120;28;20244;-69
2023/08/15 06:55:57;;;;;;;3.33;3.13;;;27.70;99.90;;;;;;5049502;28;20209;-70
2023/08/15 06:58:24;;;;;;;4.00;2.93;;;27.60;99.90;;;;;;5041903;28;20178;-70
2023/08/15 07:00:49;;;;;;;3.07;2.77;;;27.40;99.90;;;;;;5049544;28;20499;-71
2023/08/15 07:03:16;;;;;;;3.03;2.40;;;27.30;99.90;;;;;;5048299;28;21014;-67
2023/08/15 07:05:42;;;;;;;4.33;2.70;;;27.80;99.90;;;;;;5048422;28;20268;-71
2023/08/15 07:08:08;;;;;;;3.23;2.97;;;28.10;99.90;;;;;;5051281;28;20458;-68
2023/08/15 07:10:35;;;;;;;4.40;3.10;;;27.70;99.90;;;;;;5048377;28;20425;-73
2023/08/15 07:13:01;;;;;;;5.40;3.57;;;27.70;99.90;;;;;;5050263;28;20432;-71
2023/08/15 07:15:27;;;;;;;3.70;2.90;;;27.80;99.90;;;;;;5053648;28;20425;-70
2023/08/15 07:17:52;;;;;;;3.70;2.87;;;27.50;99.90;;;;;;5042054;28;20428;-70
2023/08/15 07:20:19;;;;;;;3.27;2.97;;;28.10;99.90;;;;;;5055381;28;20543;-69
2023/08/15 07:22:45;;;;;;;3.37;2.83;;;28.30;99.90;;;;;;5054011;28;20185;-70
2023/08/15 07:25:12;;;;;;;3.97;3.63;;;28.70;99.90;;;;;;5049690;28;20784;-70
2023/08/15 07:27:38;;;;;;;6.80;2.80;;;29.30;99.90;;;;;;5051291;28;20244;-68
2023/08/15 07:30:08;;;;;;;2.60;2.23;;;28.80;99.90;;;;;;5053904;28;20508;-70
2023/08/15 07:32:37;;;;;;;2.90;2.70;;;28.60;99.90;;;;;;5052634;28;20429;-70
2023/08/15 07:35:04;;;;;;;6.30;5.07;;;28.60;99.90;;;;;;5055272;28;20540;-70
2023/08/15 07:37:30;;;;;;;5.53;4.30;;;29.20;99.90;;;;;;5049391;28;20456;-69
2023/08/15 07:40:00;;;;;;;4.43;4.03;;;28.90;99.90;;;;;;5054452;28;20465;-69
2023/08/15 07:42:29;;;;;;;13.17;12.03;;;29.40;99.90;;;;;;5055893;28;20550;-71
2023/08/15 07:44:54;;;;;;;4.03;3.10;;;29.20;99.90;;;;;;5054959;28;20481;-70
2023/08/15 07:47:20;;;;;;;5.10;2.90;;;29.50;99.90;;;;;;5054830;28;20448;-71
2023/08/15 07:49:46;;;;;;;3.30;3.07;;;29.50;99.90;;;;;;5053366;28;20265;-67
2023/08/15 07:52:11;;;;;;;2.67;2.47;;;30.00;99.90;;;;;;5056435;28;20281;-72
2023/08/15 07:54:37;;;;;;;3.30;2.90;;;29.90;99.90;;;;;;5052437;28;20179;-71
2023/08/15 07:57:03;;;;;;;2.57;2.37;;;30.00;99.90;;;;;;5051758;28;20252;-70
2023/08/15 07:59:28;;;;;;;2.67;2.37;;;29.30;99.90;;;;;;5051775;28;20203;-71
2023/08/15 08:01:54;;;;;;;3.17;2.90;;;28.80;99.90;;;;;;5051013;28;20205;-71
2023/08/15 08:04:20;;;;;;;2.90;2.60;;;29.10;99.90;;;;;;5050034;28;20548;-71
2023/08/15 08:06:45;;;;;;;2.63;2.43;;;29.20;99.90;;;;;;5050601;28;20220;-71
2023/08/15 08:09:11;;;;;;;3.13;2.57;;;30.00;99.90;;;;;;5057692;28;20198;-70
2023/08/15 08:11:38;;;;;;;2.77;2.57;;;30.00;99.90;;;;;;5047346;28;20281;-70
2023/08/15 08:14:03;;;;;;;2.90;2.40;;;29.80;99.90;;;;;;5065512;28;20181;-72
2023/08/15 08:16:30;;;;;;;2.53;2.33;;;29.90;99.90;;;;;;5070334;28;20436;-71
2023/08/15 08:18:55;;;;;;;3.03;2.27;;;30.00;99.90;;;;;;5072942;28;20249;-72
2023/08/15 08:21:22;;;;;;;4.53;3.00;;;29.30;99.90;;;;;;5073605;28;20499;-71
2023/08/15 08:23:48;;;;;;;3.03;2.73;;;29.20;99.90;;;;;;5073302;28;20170;-71
2023/08/15 08:26:13;;;;;;;6.40;5.63;;;29.90;99.90;;;;;;5072906;28;20432;-70
2023/08/15 08:28:39;;;;;;;4.70;3.40;;;30.40;99.90;;;;;;5070835;28;20408;-70
2023/08/15 08:31:04;;;;;;;2.97;2.73;;;29.90;99.90;;;;;;5070154;28;20170;-71
2023/08/15 08:33:30;;;;;;;3.43;2.60;;;30.00;99.90;;;;;;5072349;28;20178;-70
2023/08/15 08:35:56;;;;;;;5.00;3.83;;;31.00;99.90;;;;;;5072427;28;20206;-68
2023/08/15 08:38:22;;;;;;;3.87;3.47;;;31.00;99.90;;;;;;5054735;28;20652;-71
2023/08/15 08:40:47;;;;;;;3.57;3.27;;;30.30;99.90;;;;;;5073456;28;20197;-70
2023/08/15 08:43:17;;;;;;;3.83;2.87;;;30.40;99.90;;;;;;5073902;28;20177;-70
2023/08/15 08:45:48;;;;;;;3.80;2.90;;;30.00;99.90;;;;;;5072220;28;20676;-70
2023/08/15 08:48:15;;;;;;;3.80;3.40;;;30.30;99.90;;;;;;5072597;28;20404;-70
2023/08/15 08:50:43;;;;;;;4.80;4.30;;;31.00;99.90;;;;;;5072965;28;20779;-71
2023/08/15 08:53:08;;;;;;;3.80;3.30;;;31.80;99.90;;;;;;5072368;28;20412;-71
2023/08/15 08:55:35;;;;;;;3.90;3.00;;;31.30;99.90;;;;;;5072811;28;20430;-71
2023/08/15 08:58:02;;;;;;;5.30;4.07;;;31.10;99.90;;;;;;5073820;28;20177;-74
2023/08/15 09:00:31;;;;;;;5.47;5.03;;;31.20;99.90;;;;;;5072024;28;20957;-70
2023/08/15 09:02:58;;;;;;;4.33;3.93;;;30.80;99.90;;;;;;5068424;28;20404;-70
2023/08/15 09:05:24;;;;;;;4.20;3.90;;;31.00;99.90;;;;;;5073523;28;20413;-70
2023/08/15 09:07:50;;;;;;;5.40;3.90;;;31.70;99.90;;;;;;5072976;28;20435;-70
2023/08/15 09:10:17;;;;;;;7.40;6.70;;;31.40;99.90;;;;;;5073116;28;20414;-69
2023/08/15 09:12:45;;;;;;;4.67;4.27;;;30.90;99.90;;;;;;5072428;28;20424;-72
2023/08/15 09:15:11;;;;;;;7.67;6.90;;;30.90;99.90;;;;;;5072065;28;20448;-71
2023/08/15 09:17:40;;;;;;;4.70;4.10;;;30.90;99.90;;;;;;5072076;28;20475;-70
2023/08/15 09:20:16;;;;;;;9.70;7.03;;;30.60;99.90;;;;;;5068066;28;20285;-70
2023/08/15 09:22:46;;;;;;;4.30;3.87;;;31.10;99.90;;;;;;5072163;28;20408;-70
2023/08/15 09:25:20;;;;;;;4.27;3.90;;;30.50;99.90;;;;;;5071708;28;20765;-70
2023/08/15 09:27:46;;;;;;;4.80;3.87;;;30.00;99.90;;;;;;5072046;28;20938;-67
2023/08/15 09:30:14;;;;;;;6.80;4.50;;;29.60;99.90;;;;;;5072009;28;20933;-69
2023/08/15 09:32:41;;;;;;;4.37;3.90;;;29.40;99.90;;;;;;5071820;28;20412;-72
2023/08/15 09:35:13;;;;;;;4.23;3.87;;;29.30;99.90;;;;;;5073270;28;20870;-71
2023/08/15 09:37:44;;;;;;;6.03;5.43;;;29.80;99.90;;;;;;5068679;28;20522;-69
2023/08/15 09:40:37;;;;;;;4.60;4.17;;;29.80;99.90;;;;;;5074408;28;20498;-72
2023/08/15 09:43:03;;;;;;;5.00;4.60;;;30.70;99.90;;;;;;5061111;28;20423;-72
2023/08/15 09:45:30;;;;;;;5.10;4.60;;;30.40;99.90;;;;;;5072741;28;20466;-72
2023/08/15 09:47:55;;;;;;;7.40;6.80;;;29.90;99.90;;;;;;5071324;28;20401;-71
2023/08/15 09:50:22;;;;;;;5.30;4.90;;;30.00;99.90;;;;;;5071627;28;20408;-71
2023/08/15 09:52:48;;;;;;;4.67;4.37;;;30.40;99.90;;;;;;5066839;28;20178;-72
2023/08/15 09:55:15;;;;;;;4.60;4.30;;;29.90;99.90;;;;;;5063999;28;20438;-72
2023/08/15 09:57:42;;;;;;;5.53;5.03;;;29.80;99.90;;;;;;5071686;28;20320;-70
2023/08/15 10:00:12;;;;;;;5.40;5.03;;;30.50;99.90;;;;;;5053124;28;20452;-72
2023/08/15 10:02:45;;;;;;;5.63;5.00;;;31.10;99.90;;;;;;5071756;28;20409;-71
2023/08/15 10:05:13;;;;;;;5.53;5.00;;;30.60;99.90;;;;;;5072928;28;20489;-71
2023/08/15 10:07:42;;;;;;;6.07;4.83;;;30.40;99.90;;;;;;5073753;28;20458;-70
2023/08/15 10:10:08;;;;;;;5.70;5.20;;;30.30;99.90;;;;;;5069266;28;20428;-72
2023/08/15 10:12:36;;;;;;;7.17;5.40;;;29.50;99.90;;;;;;5068918;28;20432;-71
2023/08/15 10:15:02;;;;;;;5.57;5.17;;;28.90;99.90;;;;;;5053403;28;21024;-71
2023/08/15 10:17:29;;;;;;;8.67;4.67;;;29.30;99.90;;;;;;5070896;28;20432;-72
2023/08/15 10:20:05;;;;;;;8.70;5.53;;;29.20;99.90;;;;;;5070745;28;20460;-72
2023/08/15 10:22:33;;;;;;;6.13;5.73;;;29.70;99.90;;;;;;5071118;28;20412;-73
2023/08/15 10:25:22;;;;;;;4.93;4.53;;;29.60;99.90;;;;;;5071496;28;20416;-69
2023/08/15 10:27:49;;;;;;;5.77;5.00;;;29.30;99.90;;;;;;5050039;28;20412;-71
2023/08/15 10:30:40;;;;;;;5.83;5.23;;;29.10;99.90;;;;;;5070562;28;20408;-68
2023/08/15 10:33:12;;;;;;;5.37;4.87;;;29.30;99.90;;;;;;5069903;28;20443;-71
2023/08/15 10:35:41;;;;;;;5.70;5.20;;;29.00;99.90;;;;;;5070153;28;20850;-70
2023/08/15 10:38:15;;;;;;;5.57;5.17;;;28.90;99.90;;;;;;5064731;28;20440;-71
2023/08/15 10:40:42;;;;;;;6.07;5.57;;;28.90;99.90;;;;;;5070661;28;20463;-72
2023/08/15 10:43:11;;;;;;;6.60;5.47;;;29.30;99.90;;;;;;5065533;28;20945;-71
2023/08/15 10:45:41;;;;;;;7.00;6.33;;;28.90;99.90;;;;;;5070795;28;20447;-71
2023/08/15 10:48:09;;;;;;;6.27;5.67;;;28.90;99.90;;;;;;5070391;28;20404;-71
2023/08/15 10:50:36;;;;;;;6.40;5.90;;;28.80;99.90;;;;;;5074832;28;20797;-71
2023/08/15 10:53:06;;;;;;;5.83;5.43;;;29.00;99.90;;;;;;5074529;28;20409;-71
2023/08/15 10:55:36;;;;;;;7.77;6.17;;;28.80;99.90;;;;;;5074614;28;20416;-72
2023/08/15 10:58:10;;;;;;;6.00;5.50;;;29.00;99.90;;;;;;5074052;28;20415;-72
2023/08/15 11:00:36;;;;;;;7.23;6.53;;;29.00;99.90;;;;;;5074133;28;20509;-71
2023/08/15 11:03:02;;;;;;;7.70;7.10;;;29.20;99.90;;;;;;5073964;28;20470;-72
2023/08/15 11:05:28;;;;;;;6.80;6.30;;;29.30;99.90;;;;;;5073974;28;20412;-72
2023/08/15 11:08:11;;;;;;;7.73;6.40;;;29.40;99.90;;;;;;5074096;28;20411;-72
2023/08/15 11:10:42;;;;;;;8.87;8.07;;;29.60;99.90;;;;;;5070297;28;20769;-72
2023/08/15 11:13:08;;;;;;;7.33;6.63;;;29.80;99.90;;;;;;5069388;28;20440;-72
2023/08/15 11:15:34;;;;;;;7.27;6.50;;;29.70;99.90;;;;;;5075106;28;20921;-71
2023/08/15 11:17:59;;;;;;;6.90;6.40;;;29.30;99.90;;;;;;5075660;28;20205;-71
2023/08/15 11:20:29;;;;;;;7.53;6.60;;;29.40;99.90;;;;;;5076697;28;20205;-70
2023/08/15 11:22:56;;;;;;;6.60;5.97;;;29.60;99.90;;;;;;5077341;28;20174;-72
2023/08/15 11:25:21;;;;;;;7.40;6.80;;;29.90;99.90;;;;;;5077391;28;20783;-72
2023/08/15 11:27:50;;;;;;;7.67;7.07;;;29.70;99.90;;;;;;5076694;28;20432;-70
2023/08/15 11:30:16;;;;;;;7.60;6.80;;;29.80;99.90;;;;;;5074628;28;20209;-69
2023/08/15 11:32:42;;;;;;;8.23;7.57;;;29.50;99.90;;;;;;5071657;28;20499;-71
2023/08/15 11:35:10;;;;;;;7.20;6.60;;;29.20;99.90;;;;;;5069031;28;20443;-70
2023/08/15 11:37:36;;;;;;;8.63;7.93;;;29.50;99.90;;;;;;5069168;28;20239;-71
2023/08/15 11:40:05;;;;;;;6.57;5.90;;;29.50;99.90;;;;;;5074627;28;20452;-71
2023/08/15 11:42:33;;;;;;;5.37;3.90;;;29.60;99.90;;;;;;5074808;28;20773;-72
2023/08/15 11:45:19;;;;;;;4.87;4.50;;;29.60;99.90;;;;;;5075189;28;20898;-72
2023/08/15 11:47:56;;;;;;;6.80;6.20;;;29.60;99.90;;;;;;5074642;28;20440;-72
2023/08/15 11:50:33;;;;;;;6.17;5.67;;;29.60;99.90;;;;;;5074876;28;20515;-69
2023/08/15 11:52:59;;;;;;;6.77;6.07;;;29.40;99.90;;;;;;5056632;28;20501;-71
2023/08/15 11:55:25;;;;;;;6.03;5.53;;;29.40;99.90;;;;;;5074698;28;20560;-72
2023/08/15 11:57:52;;;;;;;6.37;5.87;;;29.50;99.90;;;;;;5066108;28;20913;-71
2023/08/15 12:00:21;;;;;;;6.80;5.70;;;29.70;99.90;;;;;;5067885;28;20507;-71
2023/08/15 12:02:54;;;;;;;21.80;19.57;;;29.90;99.90;;;;;;5070891;28;20458;-71
2023/08/15 12:05:20;;;;;;;8.23;7.37;;;30.20;99.90;;;;;;5059166;28;20435;-72
2023/08/15 12:07:46;;;;;;;9.30;8.50;;;30.00;99.90;;;;;;5046926;28;20453;-70
2023/08/15 12:10:14;;;;;;;10.70;8.73;;;30.10;99.90;;;;;;5067862;28;20500;-71
2023/08/15 12:12:42;;;;;;;6.80;5.40;;;30.20;99.90;;;;;;5073887;28;20419;-70
2023/08/15 12:15:10;;;;;;;24.37;22.00;;;30.20;99.90;;;;;;5066482;28;20921;-72
2023/08/15 12:17:37;;;;;;;18.03;13.60;;;30.50;99.90;;;;;;5073577;28;20894;-71
2023/08/15 12:20:05;;;;;;;15.80;14.30;;;30.40;99.90;;;;;;5073055;28;20452;-72
2023/08/15 12:22:31;;;;;;;7.50;6.40;;;30.10;99.90;;;;;;5073709;28;20439;-71
2023/08/15 12:24:57;;;;;;;8.30;7.50;;;30.10;99.90;;;;;;5073315;28;20436;-70
2023/08/15 12:27:23;;;;;;;6.63;4.83;;;30.30;99.90;;;;;;5069920;28;20479;-71
2023/08/15 12:29:48;;;;;;;4.97;4.57;;;29.90;99.90;;;;;;5072637;28;20585;-71
2023/08/15 12:32:14;;;;;;;6.10;4.60;;;30.00;99.90;;;;;;5065222;28;20319;-70
2023/08/15 12:34:41;;;;;;;34.17;30.57;;;30.10;99.90;;;;;;5072800;28;20214;-71
2023/08/15 12:37:06;;;;;;;7.00;6.30;;;30.60;99.90;;;;;;5072460;28;20464;-70
2023/08/15 12:39:32;;;;;;;26.20;23.33;;;30.60;99.90;;;;;;5072442;28;20463;-71
2023/08/15 12:41:58;;;;;;;21.30;19.10;;;30.70;99.90;;;;;;5072436;28;20257;-69
2023/08/15 12:44:24;;;;;;;12.47;11.13;;;30.80;99.90;;;;;;5064972;28;20671;-69
2023/08/15 12:46:49;;;;;;;6.50;5.37;;;30.80;99.90;;;;;;5072524;28;20288;-71
2023/08/15 12:49:15;;;;;;;11.20;9.47;;;30.80;99.90;;;;;;5072096;28;20687;-71
2023/08/15 12:51:41;;;;;;;8.30;7.53;;;30.60;99.90;;;;;;5072587;28;20558;-69